Chicago, IL (60601)

8:26 PM CDT on September 15, 2014 (GMT -0500)
West Loop - Old St. Pats | Change Station
CLOSE
Current Station
Personal Weather Station
Location: Chicago, IL
Elevation: 548 ft
Nearby Weather Stations

Elev 548 ft 41.88 °N, 87.64 °W | Updated 35 seconds ago

Overcast
Overcast
58.8 °F
Feels Like 58.8 °F
N
2.0
Wind Variable Wind from ESE
Gusts 5.0 mph

Today
High -- | Low -- °F
--% Chance of Precip.
Yesterday
High -- | Low -- °F
Precip. -- in
6:30 AM 6:59 PM
Waning Gibbous, 50% visible
Pressure 30.12 in
Visibility 9.0 miles
Clouds Mostly Cloudy 1400 ft
Overcast 2900 ft
Dew Point 54 °F
Humidity 84%
Rainfall 0.00 in
Snow Depth Not available.
UV 0 out of 12
Pollen 4.50 out of 12
Ozone Good
PM2.5 Good
Flu Activity Not available.
SPECI KMDW 160113Z 01008KT 9SM BKN014 OVC029 16/12 A3012 RMK AO2 T01560122

More Conditions Fewer Conditions

Pressure 30.12 in
Visibility 9.0 miles
Clouds Mostly Cloudy 1400 ft
Overcast 2900 ft
Dew Point 54 °F
Humidity 84%
Rainfall 0.00 in
Snow Depth Not available.
UV 0 out of 12
Pollen 4.50 out of 12
Ozone Good
PM2.5 Good
Flu Activity Not available.
SPECI KMDW 160113Z 01008KT 9SM BKN014 OVC029 16/12 A3012 RMK AO2 T01560122

More Conditions Fewer Conditions

10-Day Weather Forecast

Almanac

Astronomy

Sep. 15, 2014 Rise Set
Actual Time 6:30 AM CDT 6:59 PM CDT
Civil Twilight 6:02 AM CDT 7:27 PM CDT
Nautical Twilight 5:29 AM CDT 8:00 PM CDT
Astronomical Twilight 4:55 AM CDT 8:34 PM CDT
Moon 11:37 PM CDT (9/15) 1:36 PM CDT (9/15)
Length of Visible Light 13h 25m
Length of Day
12h 29m
Tomorrow will be 2m 47s shorter.
Waning Gibbous, 50% of the Moon is Illuminated
Today
Waning Gibbous
Sep 15
Last Quarter
Sep 24
New
Oct 1
First Quarter
Oct 8
Full

Today's Extremes

State Highs State Lows

Community

WunderPhotos

Upload Photos

1,753,645 photos uploaded!

WunderBlogs® & News

Nearby

Air Quality

  Air Quality AQ Index Pollutant
Yesterday Moderate
PM2.5
Yesterday Good
OZONE
Current Good
PM2.5
Current Good
OZONE
Monday Moderate
PM2.5
Tuesday Good
PM2.5
Wednesday Good
PM2.5
Thursday Moderate
PM2.5
Friday Moderate
PM2.5

Snow Depth

Station Depth Elevation
No new snow has been reported.

Earthquake Activity

City Distance Mag. Time & Date
No recent earthquake activity has been reported nearby.
Minimum magnitude displayed is 2.5.

Coastal Water Temperatures

Place Temperature
No Stations Reporting

Nearby Weather Stations